Time;durP1;ratioP1;P1;durP2;ratioP2;P2;SDS_P1;SDS_P2;PMS_P1;PMS_P2;Temp;Humidity;BMP_temperature;BMP_pressure;BME280_temperature;BME280_humidity;BME280_pressure;Samples;Min_cycle;Max_cycle;Signal;HPM_P1;HPM_P2
2020/12/06 00:01:49;;;;;;;4.80;1.00;;;27.80;78.10;;;;;;5037595;28;19904;-59
2020/12/06 00:04:20;;;;;;;5.90;1.25;;;27.90;77.30;;;;;;5070126;28;20029;-62
2020/12/06 00:06:51;;;;;;;5.72;1.30;;;27.60;70.00;;;;;;5077534;28;20480;-62
2020/12/06 00:09:19;;;;;;;9.73;1.58;;;27.90;70.80;;;;;;5113609;28;20024;-68
2020/12/06 00:11:47;;;;;;;5.65;1.60;;;27.80;66.50;;;;;;5094446;28;20023;-63
2020/12/06 00:14:15;;;;;;;4.97;1.05;;;27.70;65.20;;;;;;5113072;28;20015;-65
2020/12/06 00:16:43;;;;;;;6.03;1.42;;;27.70;65.40;;;;;;5112631;28;20026;-63
2020/12/06 00:19:11;;;;;;;8.00;1.60;;;27.40;64.70;;;;;;5112722;28;20356;-62
2020/12/06 00:21:39;;;;;;;7.90;1.35;;;27.50;64.80;;;;;;5095365;28;20479;-62
2020/12/06 00:24:07;;;;;;;4.65;1.50;;;27.90;66.60;;;;;;5113014;28;20027;-62
2020/12/06 00:26:35;;;;;;;6.40;1.17;;;28.00;64.10;;;;;;5112823;28;20456;-61
2020/12/06 00:29:02;;;;;;;8.52;1.52;;;28.30;64.80;;;;;;5112876;28;20481;-63
2020/12/06 00:31:30;;;;;;;6.32;1.45;;;28.30;66.10;;;;;;5113233;28;20034;-62
2020/12/06 00:33:58;;;;;;;9.45;1.55;;;28.50;65.40;;;;;;5094249;28;20432;-61
2020/12/06 00:36:26;;;;;;;8.38;1.20;;;28.70;65.80;;;;;;5112746;28;20031;-62
2020/12/06 00:38:54;;;;;;;7.55;1.23;;;29.00;66.60;;;;;;5116187;28;20053;-62
2020/12/06 00:41:23;;;;;;;9.13;1.90;;;28.80;61.40;;;;;;5116503;28;20066;-61
2020/12/06 00:43:50;;;;;;;10.88;1.17;;;28.60;61.80;;;;;;5116282;28;20073;-61
2020/12/06 00:46:23;;;;;;;5.57;1.23;;;28.70;61.80;;;;;;5116512;28;20016;-61
2020/12/06 00:48:52;;;;;;;8.48;1.60;;;28.30;59.70;;;;;;5116561;28;20082;-61
2020/12/06 00:51:20;;;;;;;9.48;1.25;;;28.50;62.70;;;;;;5116212;28;20020;-63
2020/12/06 00:53:47;;;;;;;8.57;1.30;;;28.70;61.90;;;;;;5116479;28;20103;-62
2020/12/06 00:56:19;;;;;;;8.23;1.35;;;28.50;60.60;;;;;;5116129;28;20380;-61
2020/12/06 00:58:48;;;;;;;9.18;1.35;;;28.50;59.80;;;;;;5116579;28;20122;-62
2020/12/06 01:01:18;;;;;;;11.65;1.73;;;28.60;61.00;;;;;;5116007;28;20380;-61
2020/12/06 01:03:46;;;;;;;5.82;1.58;;;28.60;60.10;;;;;;5116859;28;20309;-61
2020/12/06 01:06:19;;;;;;;5.22;1.42;;;28.20;59.10;;;;;;5115938;28;20046;-61
2020/12/06 01:08:47;;;;;;;7.28;1.13;;;28.40;59.60;;;;;;5115958;28;20023;-61
2020/12/06 01:11:19;;;;;;;5.10;1.00;;;28.60;59.50;;;;;;5116095;28;20023;-61
2020/12/06 01:13:46;;;;;;;7.03;1.15;;;28.80;58.10;;;;;;5116098;28;20395;-65
2020/12/06 01:16:14;;;;;;;5.60;1.00;;;28.60;57.10;;;;;;5116093;28;20047;-62
2020/12/06 01:18:42;;;;;;;6.80;1.55;;;28.70;56.80;;;;;;5115684;28;20035;-64
2020/12/06 01:21:11;;;;;;;7.60;1.55;;;29.10;57.00;;;;;;5116278;28;20399;-63
2020/12/06 01:23:39;;;;;;;8.50;1.10;;;29.00;55.10;;;;;;5115869;28;20027;-62
2020/12/06 01:26:09;;;;;;;8.23;1.20;;;28.80;54.50;;;;;;5115571;28;20127;-62
2020/12/06 01:28:37;;;;;;;6.90;1.15;;;29.00;53.70;;;;;;5115891;28;20047;-60
2020/12/06 01:31:07;;;;;;;9.65;1.30;;;28.90;53.40;;;;;;5115406;28;20031;-63
2020/12/06 01:33:35;;;;;;;6.40;1.10;;;29.00;55.20;;;;;;5115501;28;20447;-63
2020/12/06 01:36:03;;;;;;;6.85;1.15;;;29.00;53.90;;;;;;5115447;28;20038;-62
2020/12/06 01:38:31;;;;;;;6.60;1.02;;;29.00;53.00;;;;;;5115773;28;20031;-62
2020/12/06 01:40:59;;;;;;;9.15;0.98;;;29.30;53.40;;;;;;5115874;28;20024;-60
2020/12/06 01:43:27;;;;;;;6.85;1.40;;;28.90;53.20;;;;;;5115581;28;20031;-60
2020/12/06 01:45:55;;;;;;;5.75;1.55;;;29.10;53.20;;;;;;5115598;28;20111;-61
2020/12/06 01:48:23;;;;;;;7.28;1.15;;;29.10;52.90;;;;;;5115604;28;20034;-61
2020/12/06 01:50:50;;;;;;;6.78;1.10;;;29.30;54.20;;;;;;5115390;28;20474;-61
2020/12/06 01:53:18;;;;;;;6.07;1.20;;;29.40;54.00;;;;;;5115790;28;20023;-60
2020/12/06 01:55:47;;;;;;;7.18;1.38;;;29.30;52.70;;;;;;5114737;28;20048;-60
2020/12/06 01:58:15;;;;;;;5.60;0.93;;;29.60;53.90;;;;;;5115389;28;20033;-60
2020/12/06 02:00:43;;;;;;;8.25;1.38;;;29.60;54.60;;;;;;5115009;28;20106;-61
2020/12/06 02:03:11;;;;;;;7.40;1.50;;;29.50;51.60;;;;;;5115175;28;20015;-60
2020/12/06 02:05:39;;;;;;;5.53;1.10;;;29.40;53.40;;;;;;5115091;28;20015;-66
2020/12/06 02:08:07;;;;;;;4.65;0.90;;;29.60;54.50;;;;;;5114823;28;20027;-61
2020/12/06 02:10:35;;;;;;;5.82;1.73;;;30.10;54.20;;;;;;5115013;28;20028;-61
2020/12/06 02:13:02;;;;;;;4.00;1.30;;;30.30;52.10;;;;;;5114992;28;20031;-61
2020/12/06 02:15:30;;;;;;;4.47;1.23;;;30.10;51.80;;;;;;5114743;28;20039;-63
2020/12/06 02:17:59;;;;;;;7.35;1.40;;;30.20;53.40;;;;;;5114749;28;20020;-61
2020/12/06 02:20:27;;;;;;;5.25;0.90;;;30.50;53.70;;;;;;5114527;28;20080;-61
2020/12/06 02:22:55;;;;;;;7.18;1.33;;;30.80;54.30;;;;;;5115351;28;20049;-61
2020/12/06 02:25:23;;;;;;;8.48;1.05;;;30.30;52.10;;;;;;5114592;28;20020;-60
2020/12/06 02:27:50;;;;;;;6.13;1.17;;;30.10;52.20;;;;;;5114377;28;20153;-59
2020/12/06 02:30:18;;;;;;;8.98;1.35;;;30.20;53.30;;;;;;5062798;28;20092;-60
2020/12/06 02:32:46;;;;;;;5.43;1.00;;;30.60;53.90;;;;;;5062934;28;20127;-57
2020/12/06 02:35:14;;;;;;;7.60;1.38;;;30.30;51.20;;;;;;5106187;28;20027;-59
2020/12/06 02:37:41;;;;;;;7.45;1.48;;;30.50;52.20;;;;;;5078809;28;20036;-59
2020/12/06 02:40:09;;;;;;;5.10;1.20;;;30.80;52.10;;;;;;5114655;28;20023;-58
2020/12/06 02:42:36;;;;;;;5.78;1.20;;;30.60;51.00;;;;;;5114473;28;20479;-58
2020/12/06 02:45:05;;;;;;;4.85;1.33;;;30.60;52.50;;;;;;5114074;28;20023;-58
2020/12/06 02:47:33;;;;;;;5.50;1.20;;;31.00;51.80;;;;;;5114104;28;20032;-60
2020/12/06 02:50:01;;;;;;;5.50;1.00;;;31.20;52.00;;;;;;5114313;28;20024;-59
2020/12/06 02:52:29;;;;;;;7.70;1.52;;;31.40;50.20;;;;;;5114634;28;20023;-61
2020/12/06 02:54:57;;;;;;;5.72;1.10;;;31.20;52.80;;;;;;5113829;28;20058;-58
2020/12/06 02:57:25;;;;;;;7.18;1.30;;;31.00;49.20;;;;;;5113857;28;20051;-60
2020/12/06 02:59:52;;;;;;;5.63;1.20;;;30.90;49.80;;;;;;5113578;28;20035;-59
2020/12/06 03:02:20;;;;;;;4.13;1.25;;;31.00;49.90;;;;;;5113736;28;20089;-61
2020/12/06 03:04:48;;;;;;;4.60;1.20;;;31.30;51.40;;;;;;5113961;28;20023;-60
2020/12/06 03:07:16;;;;;;;6.63;1.10;;;31.00;48.00;;;;;;5113966;28;20046;-61
2020/12/06 03:09:43;;;;;;;8.50;1.55;;;30.80;47.70;;;;;;5114045;28;20028;-60
2020/12/06 03:12:12;;;;;;;4.57;1.10;;;31.00;49.10;;;;;;5077978;28;20036;-60
2020/12/06 03:14:40;;;;;;;5.60;1.08;;;31.50;51.00;;;;;;5078322;28;20028;-60
2020/12/06 03:17:07;;;;;;;5.85;1.05;;;31.80;48.80;;;;;;5113942;28;20027;-60
2020/12/06 03:19:35;;;;;;;8.68;1.10;;;32.00;48.50;;;;;;5114399;28;20051;-59
2020/12/06 03:22:02;;;;;;;7.22;1.40;;;31.50;47.60;;;;;;5113764;28;20023;-60
2020/12/06 03:24:30;;;;;;;5.38;1.13;;;31.80;48.60;;;;;;5113654;28;20015;-59
2020/12/06 03:26:58;;;;;;;5.60;1.00;;;31.70;48.60;;;;;;5113670;28;20035;-60
2020/12/06 03:29:25;;;;;;;5.68;1.05;;;31.30;48.30;;;;;;5113587;28;20548;-62
2020/12/06 03:31:52;;;;;;;3.50;1.10;;;31.10;49.00;;;;;;5113520;28;20027;-59
2020/12/06 03:34:20;;;;;;;3.55;1.23;;;31.00;48.00;;;;;;5113246;28;20439;-60
2020/12/06 03:36:48;;;;;;;4.93;0.90;;;31.30;49.70;;;;;;5113562;28;20024;-60
2020/12/06 03:39:15;;;;;;;5.22;0.80;;;31.40;47.50;;;;;;5113698;28;20046;-59
2020/12/06 03:41:46;;;;;;;6.55;1.00;;;31.60;47.90;;;;;;5113567;28;20019;-60
2020/12/06 03:44:14;;;;;;;6.13;1.73;;;31.40;46.40;;;;;;5113481;28;20031;-60
2020/12/06 03:46:42;;;;;;;5.65;1.40;;;31.30;46.70;;;;;;5113462;28;20023;-59
2020/12/06 03:49:09;;;;;;;5.18;1.25;;;31.60;48.50;;;;;;5113834;28;20410;-59
2020/12/06 03:51:36;;;;;;;9.60;1.40;;;31.50;48.50;;;;;;5095676;28;20111;-59
2020/12/06 03:54:04;;;;;;;7.65;1.63;;;31.80;49.00;;;;;;5113359;28;20379;-59
2020/12/06 03:56:32;;;;;;;7.13;1.30;;;32.00;47.50;;;;;;5119132;28;20054;-59
2020/12/06 03:59:00;;;;;;;6.22;1.00;;;31.70;47.10;;;;;;5133762;28;20027;-60
2020/12/06 04:01:27;;;;;;;6.32;1.08;;;31.50;46.10;;;;;;5133560;28;20297;-59
2020/12/06 04:03:55;;;;;;;5.65;1.05;;;31.20;46.90;;;;;;5133791;28;20050;-59
2020/12/06 04:06:22;;;;;;;5.85;1.40;;;31.30;46.70;;;;;;5133961;28;20027;-59
2020/12/06 04:08:50;;;;;;;7.65;1.70;;;31.30;45.40;;;;;;5133400;28;20022;-59
2020/12/06 04:11:18;;;;;;;5.20;0.90;;;31.30;45.10;;;;;;5133608;27;20023;-59
2020/12/06 04:13:46;;;;;;;5.70;1.10;;;31.40;46.40;;;;;;5137082;27;20360;-60
2020/12/06 04:16:14;;;;;;;4.05;0.85;;;31.80;47.50;;;;;;5137523;27;20027;-61
2020/12/06 04:18:41;;;;;;;3.97;1.05;;;32.30;47.10;;;;;;5137817;27;20030;-61
2020/12/06 04:21:11;;;;;;;4.90;0.88;;;32.10;46.10;;;;;;5137667;27;20030;-60
2020/12/06 04:23:42;;;;;;;8.75;0.98;;;32.40;46.80;;;;;;5119060;27;20106;-59
2020/12/06 04:26:10;;;;;;;4.75;0.90;;;31.80;44.30;;;;;;5102346;27;20421;-60
2020/12/06 04:28:38;;;;;;;5.50;0.93;;;31.90;44.10;;;;;;5118798;27;20031;-59
2020/12/06 04:31:06;;;;;;;7.03;1.13;;;31.80;43.70;;;;;;5137333;27;20031;-60
2020/12/06 04:33:33;;;;;;;5.25;1.08;;;31.80;44.80;;;;;;5137832;27;20023;-59
2020/12/06 04:36:01;;;;;;;10.75;1.52;;;32.00;45.30;;;;;;5137259;27;20027;-59
2020/12/06 04:38:28;;;;;;;4.93;1.17;;;31.80;45.20;;;;;;5137195;27;20101;-59
2020/12/06 04:40:57;;;;;;;6.07;1.08;;;31.80;45.50;;;;;;5137073;27;20492;-59
2020/12/06 04:43:26;;;;;;;7.88;1.38;;;32.00;46.00;;;;;;5137316;27;20088;-59
2020/12/06 04:45:53;;;;;;;6.00;1.08;;;32.10;45.80;;;;;;5137647;27;20441;-59
2020/12/06 04:48:42;;;;;;;6.68;1.08;;;32.40;46.70;;;;;;5119538;27;20031;-61
2020/12/06 04:51:14;;;;;;;7.00;0.90;;;32.80;47.10;;;;;;5137671;27;20041;-62
2020/12/06 04:53:52;;;;;;;6.25;1.02;;;32.90;45.90;;;;;;5137585;27;20079;-61
2020/12/06 04:56:21;;;;;;;8.45;1.10;;;33.00;47.40;;;;;;5137201;27;20050;-60
2020/12/06 04:58:53;;;;;;;4.82;1.00;;;32.50;45.10;;;;;;5137271;27;20023;-61
2020/12/06 05:01:21;;;;;;;6.40;1.08;;;32.50;45.70;;;;;;5137567;27;20027;-61
2020/12/06 05:03:58;;;;;;;6.65;1.33;;;32.60;45.90;;;;;;5119089;27;20050;-61
2020/12/06 05:06:29;;;;;;;5.88;1.65;;;32.40;46.50;;;;;;5137519;27;20414;-61
2020/12/06 05:08:58;;;;;;;7.80;1.40;;;32.60;46.10;;;;;;5136829;27;20027;-60
2020/12/06 05:11:26;;;;;;;8.85;1.42;;;32.10;45.20;;;;;;5136718;27;20384;-62
2020/12/06 05:13:54;;;;;;;5.30;1.17;;;32.00;46.40;;;;;;5137608;27;20034;-61
2020/12/06 05:16:23;;;;;;;6.05;1.30;;;32.10;44.90;;;;;;5136748;27;20456;-61
2020/12/06 05:18:51;;;;;;;3.70;0.98;;;31.80;45.30;;;;;;5136156;27;20110;-61
2020/12/06 05:21:19;;;;;;;4.53;1.10;;;31.80;45.90;;;;;;5117730;27;20027;-60
2020/12/06 05:23:47;;;;;;;5.00;0.90;;;32.00;46.00;;;;;;5135851;27;20050;-62
2020/12/06 05:26:17;;;;;;;7.28;1.23;;;32.30;46.60;;;;;;5136421;27;20080;-62
2020/12/06 05:28:45;;;;;;;7.53;1.00;;;32.50;46.00;;;;;;5137042;27;20027;-61
2020/12/06 05:31:13;;;;;;;4.60;0.95;;;32.50;45.20;;;;;;5136922;27;20024;-61
2020/12/06 05:33:41;;;;;;;7.25;1.10;;;32.60;47.20;;;;;;5136705;27;20064;-60
2020/12/06 05:36:09;;;;;;;5.07;1.00;;;32.60;44.90;;;;;;5118030;27;20035;-62
2020/12/06 05:38:36;;;;;;;5.75;1.10;;;32.30;44.50;;;;;;5135924;27;20055;-60
2020/12/06 05:41:06;;;;;;;6.57;1.23;;;32.30;43.90;;;;;;5136116;27;20031;-60
2020/12/06 05:43:35;;;;;;;3.92;0.95;;;31.90;44.90;;;;;;5136611;27;20142;-61
2020/12/06 05:46:10;;;;;;;3.40;0.85;;;32.10;44.80;;;;;;5135771;27;20015;-61
2020/12/06 05:48:38;;;;;;;6.72;1.38;;;32.60;44.60;;;;;;5136043;27;20035;-61
2020/12/06 05:51:07;;;;;;;4.68;1.35;;;32.80;44.40;;;;;;5136267;27;20023;-61
2020/12/06 05:53:35;;;;;;;4.90;1.10;;;32.60;44.00;;;;;;5135472;27;20023;-61
2020/12/06 05:56:28;;;;;;;5.27;1.20;;;32.30;44.30;;;;;;5110361;28;20043;-61
2020/12/06 05:58:56;;;;;;;6.00;1.27;;;32.40;43.90;;;;;;5072390;28;20435;-61
2020/12/06 06:01:24;;;;;;;6.82;1.65;;;32.40;45.10;;;;;;5072272;28;20040;-62
2020/12/06 06:03:53;;;;;;;6.45;1.58;;;32.80;46.00;;;;;;5072197;28;20514;-61
2020/12/06 06:06:26;;;;;;;4.33;1.20;;;32.90;45.70;;;;;;5071959;28;20027;-62
2020/12/06 06:09:00;;;;;;;3.08;0.90;;;32.80;45.30;;;;;;5039021;28;20352;-61
2020/12/06 06:11:29;;;;;;;5.85;1.02;;;32.60;44.70;;;;;;5023233;28;20037;-61
2020/12/06 06:14:06;;;;;;;6.53;1.27;;;32.40;44.80;;;;;;5072022;28;20040;-60
2020/12/06 06:16:36;;;;;;;5.68;0.93;;;32.60;43.70;;;;;;5071920;28;20111;-61
2020/12/06 06:19:06;;;;;;;5.53;1.15;;;32.40;44.50;;;;;;5071799;28;20033;-61
2020/12/06 06:21:39;;;;;;;3.53;0.85;;;32.60;44.40;;;;;;5071811;28;20033;-61
2020/12/06 06:24:11;;;;;;;4.47;0.80;;;32.90;43.30;;;;;;5071771;28;20036;-61
2020/12/06 06:26:42;;;;;;;5.80;1.00;;;33.00;42.70;;;;;;5071740;28;20025;-61
2020/12/06 06:29:15;;;;;;;6.47;1.13;;;33.00;42.90;;;;;;5080414;28;20063;-62
2020/12/06 06:31:45;;;;;;;5.88;1.30;;;33.10;43.70;;;;;;5114747;28;20415;-62
2020/12/06 06:34:13;;;;;;;4.38;1.42;;;32.90;43.80;;;;;;5114423;28;20023;-62
2020/12/06 06:36:45;;;;;;;6.78;1.10;;;33.30;43.40;;;;;;5113877;28;20028;-61
2020/12/06 06:39:20;;;;;;;2.65;0.82;;;33.30;43.10;;;;;;5114531;28;20032;-61
2020/12/06 06:42:14;;;;;;;5.32;1.00;;;33.30;43.60;;;;;;5078448;28;20031;-61
2020/12/06 06:44:45;;;;;;;4.97;1.27;;;33.00;42.70;;;;;;5114317;28;20024;-61
2020/12/06 06:47:14;;;;;;;4.53;1.65;;;33.10;42.70;;;;;;5063422;28;20066;-61
2020/12/06 06:50:01;;;;;;;5.95;1.55;;;32.80;42.70;;;;;;5113861;28;20088;-61
2020/12/06 06:52:30;;;;;;;3.95;1.02;;;33.00;42.40;;;;;;5071277;28;20032;-61
2020/12/06 06:54:59;;;;;;;4.40;1.23;;;33.00;42.80;;;;;;5071053;28;20029;-61
2020/12/06 06:57:32;;;;;;;6.10;1.63;;;33.30;42.00;;;;;;5071127;28;20049;-61
2020/12/06 07:00:05;;;;;;;5.93;1.10;;;33.20;42.40;;;;;;5021798;28;20037;-61
2020/12/06 07:02:35;;;;;;;5.00;1.20;;;33.10;42.40;;;;;;5071009;28;20029;-62
2020/12/06 07:05:03;;;;;;;;;;;33.20;42.00;;;;;;5071390;28;20116;-61
2020/12/06 07:07:51;;;;;;;2.92;0.75;;;32.70;41.90;;;;;;5071618;28;19987;-60
2020/12/06 07:10:21;;;;;;;4.78;1.42;;;31.60;41.70;;;;;;5015324;28;20041;-61
2020/12/06 07:12:54;;;;;;;6.07;1.20;;;31.50;42.50;;;;;;5031673;28;20038;-61
2020/12/06 07:15:25;;;;;;;5.20;1.05;;;31.30;42.90;;;;;;5031591;28;20099;-60
2020/12/06 07:17:52;;;;;;;;;;;31.20;43.80;;;;;;5032032;28;20037;-60
2020/12/06 07:20:22;;;;;;;3.85;1.00;;;31.20;42.60;;;;;;5031872;28;19920;-60
2020/12/06 07:22:50;;;;;;;6.13;1.10;;;30.90;43.10;;;;;;5041580;28;20370;-61
2020/12/06 07:25:20;;;;;;;3.08;1.20;;;30.70;42.40;;;;;;5071282;28;20021;-59
2020/12/06 07:27:49;;;;;;;4.53;0.77;;;30.50;43.20;;;;;;5071185;28;20109;-59
2020/12/06 07:30:19;;;;;;;3.85;1.00;;;30.40;44.20;;;;;;5054626;28;20400;-58
2020/12/06 07:32:47;;;;;;;6.65;1.13;;;30.10;43.00;;;;;;5071039;28;20035;-60
2020/12/06 07:35:19;;;;;;;5.45;1.05;;;29.90;42.80;;;;;;5071246;28;20038;-59
2020/12/06 07:37:47;;;;;;;4.47;1.00;;;29.70;43.10;;;;;;5071156;28;20032;-58
2020/12/06 07:40:15;;;;;;;6.55;1.17;;;29.40;43.00;;;;;;5071119;28;20025;-59
2020/12/06 07:42:43;;;;;;;4.93;0.93;;;29.40;43.80;;;;;;5070576;28;20091;-59
2020/12/06 07:45:12;;;;;;;4.50;1.40;;;29.30;43.50;;;;;;5070620;28;20107;-59
2020/12/06 07:47:40;;;;;;;3.70;1.52;;;29.40;43.40;;;;;;5091437;28;20024;-58
2020/12/06 07:50:08;;;;;;;3.15;1.10;;;29.50;44.20;;;;;;5113255;28;20042;-58
2020/12/06 07:52:38;;;;;;;6.50;1.10;;;29.60;44.00;;;;;;5113114;28;20089;-58
2020/12/06 07:55:11;;;;;;;4.47;1.00;;;30.30;43.40;;;;;;5113282;28;20186;-59
2020/12/06 07:57:48;;;;;;;5.00;1.40;;;30.20;43.20;;;;;;5094362;28;20377;-58
2020/12/06 08:00:23;;;;;;;4.40;1.00;;;30.30;43.40;;;;;;5113754;28;20028;-57
2020/12/06 08:02:59;;;;;;;4.65;1.05;;;29.90;43.20;;;;;;5114178;28;20026;-57
2020/12/06 08:05:38;;;;;;;3.72;1.00;;;29.50;44.10;;;;;;5113827;28;20051;-58
2020/12/06 08:08:14;;;;;;;4.18;1.02;;;29.00;44.40;;;;;;5113819;28;20109;-58
2020/12/06 08:10:44;;;;;;;5.05;1.05;;;28.70;45.10;;;;;;5113628;28;20054;-59
2020/12/06 08:13:13;;;;;;;4.30;1.67;;;28.50;45.00;;;;;;5113074;28;20019;-59
2020/12/06 08:15:41;;;;;;;3.40;1.30;;;28.30;45.20;;;;;;5112812;28;20106;-58
2020/12/06 08:18:17;;;;;;;5.70;1.45;;;28.10;44.90;;;;;;5112908;28;20099;-58
2020/12/06 08:20:55;;;;;;;4.32;1.48;;;28.00;45.80;;;;;;5113245;28;20024;-58
2020/12/06 08:23:36;;;;;;;4.57;1.02;;;27.90;45.70;;;;;;5095305;28;20115;-57
2020/12/06 08:26:05;;;;;;;7.63;1.38;;;27.80;45.00;;;;;;5113720;28;20490;-58
2020/12/06 08:28:34;;;;;;;4.00;1.00;;;27.70;45.40;;;;;;5113386;28;20015;-59
2020/12/06 08:31:18;;;;;;;5.80;1.40;;;27.60;45.90;;;;;;5113391;28;20031;-52
2020/12/06 08:33:47;;;;;;;6.18;1.58;;;27.60;45.90;;;;;;5112909;28;20051;-57
2020/12/06 08:36:27;;;;;;;6.32;1.35;;;27.50;46.50;;;;;;5094135;28;20115;-57
2020/12/06 08:38:55;;;;;;;7.30;1.42;;;27.40;46.60;;;;;;5077215;28;20027;-60
2020/12/06 08:41:26;;;;;;;5.60;1.40;;;27.30;46.10;;;;;;5112546;28;20027;-60
2020/12/06 08:44:02;;;;;;;3.85;0.88;;;27.20;46.10;;;;;;5112311;28;20024;-59
2020/12/06 08:46:32;;;;;;;4.90;1.38;;;27.10;47.00;;;;;;5112664;28;20511;-59
2020/12/06 08:49:02;;;;;;;7.40;1.20;;;27.10;47.00;;;;;;5112878;28;20024;-59
2020/12/06 08:51:37;;;;;;;4.85;1.45;;;26.90;46.30;;;;;;5112294;28;20024;-60
2020/12/06 08:54:09;;;;;;;5.40;1.13;;;26.90;46.70;;;;;;5112476;28;20027;-59
2020/12/06 08:56:39;;;;;;;4.60;1.38;;;26.80;47.20;;;;;;5112184;28;20075;-59
2020/12/06 08:59:18;;;;;;;6.25;1.48;;;26.70;47.40;;;;;;5114325;28;20032;-60
2020/12/06 09:01:54;;;;;;;6.40;1.52;;;26.70;47.90;;;;;;5116363;28;20032;-58
2020/12/06 09:04:23;;;;;;;5.10;1.40;;;26.60;49.50;;;;;;5115707;28;20022;-58
2020/12/06 09:06:54;;;;;;;4.20;1.17;;;26.50;49.20;;;;;;5116005;28;20016;-59
2020/12/06 09:09:22;;;;;;;4.80;1.40;;;26.40;48.50;;;;;;5063669;28;20115;-58
2020/12/06 09:11:58;;;;;;;3.50;1.08;;;26.40;48.90;;;;;;5115983;28;20027;-58
2020/12/06 09:14:26;;;;;;;5.40;1.10;;;26.30;48.80;;;;;;5097368;28;20028;-58
2020/12/06 09:16:54;;;;;;;3.53;1.02;;;26.30;48.90;;;;;;5115621;28;20028;-58
2020/12/06 09:19:22;;;;;;;6.50;1.88;;;26.20;48.90;;;;;;5115625;28;20027;-61
2020/12/06 09:21:50;;;;;;;4.75;1.38;;;26.10;49.30;;;;;;5116206;28;20509;-58
2020/12/06 09:24:18;;;;;;;4.53;1.38;;;26.10;49.70;;;;;;5115699;28;20421;-59
2020/12/06 09:26:46;;;;;;;4.47;1.17;;;26.00;49.50;;;;;;5115535;28;20084;-58
2020/12/06 09:29:15;;;;;;;3.97;1.83;;;26.00;50.00;;;;;;5115917;28;20039;-58
2020/12/06 09:31:43;;;;;;;3.65;1.05;;;25.90;49.80;;;;;;5115631;28;20351;-59
2020/12/06 09:34:11;;;;;;;4.95;1.20;;;25.80;50.20;;;;;;5115314;28;20024;-58
2020/12/06 09:36:44;;;;;;;9.77;1.77;;;25.80;50.80;;;;;;5115506;28;20529;-59
2020/12/06 09:39:12;;;;;;;4.20;1.20;;;25.70;50.70;;;;;;5115220;28;20030;-59
2020/12/06 09:41:44;;;;;;;5.20;1.40;;;25.60;51.30;;;;;;5115697;28;20041;-59
2020/12/06 09:44:13;;;;;;;7.15;1.48;;;25.60;50.40;;;;;;5097368;28;20114;-59
2020/12/06 09:46:41;;;;;;;3.65;1.30;;;25.60;51.20;;;;;;5115252;28;20056;-59
2020/12/06 09:49:10;;;;;;;5.43;1.30;;;25.50;51.00;;;;;;5115286;28;20114;-58
2020/12/06 09:51:41;;;;;;;7.93;1.63;;;25.50;51.10;;;;;;5115180;28;20019;-60
2020/12/06 09:54:09;;;;;;;5.97;2.58;;;25.50;51.50;;;;;;5115085;28;20134;-58
2020/12/06 09:56:37;;;;;;;6.78;3.33;;;25.50;51.20;;;;;;5069817;28;20055;-57
2020/12/06 09:59:06;;;;;;;5.78;3.38;;;25.40;51.10;;;;;;5115088;28;20114;-56
2020/12/06 10:01:34;;;;;;;7.75;3.10;;;25.40;51.60;;;;;;5115284;28;20477;-57
2020/12/06 10:04:02;;;;;;;9.02;3.60;;;25.40;52.50;;;;;;5115257;28;20464;-57
2020/12/06 10:06:30;;;;;;;6.20;2.97;;;25.30;51.80;;;;;;5114863;28;20027;-59
2020/12/06 10:08:58;;;;;;;6.07;2.72;;;25.30;52.50;;;;;;5096163;28;20031;-57
2020/12/06 10:11:26;;;;;;;5.95;2.13;;;25.30;52.20;;;;;;5114945;28;20449;-55
2020/12/06 10:13:54;;;;;;;5.68;2.35;;;25.30;52.30;;;;;;5115121;28;20032;-57
2020/12/06 10:16:22;;;;;;;4.97;1.90;;;25.30;52.70;;;;;;5114419;28;20032;-61
2020/12/06 10:18:54;;;;;;;6.15;1.75;;;25.20;53.00;;;;;;5114594;28;20379;-60
2020/12/06 10:21:22;;;;;;;5.68;1.48;;;25.10;52.00;;;;;;5114803;28;20031;-58
2020/12/06 10:23:50;;;;;;;5.35;1.50;;;25.10;51.50;;;;;;5114324;28;20015;-59
2020/12/06 10:26:18;;;;;;;5.22;1.60;;;25.00;52.60;;;;;;5114369;28;20058;-60
2020/12/06 10:28:46;;;;;;;4.93;1.23;;;24.90;52.20;;;;;;5114966;28;20047;-59
2020/12/06 10:31:17;;;;;;;5.30;1.40;;;24.90;52.10;;;;;;5114068;28;20492;-59
2020/12/06 10:33:45;;;;;;;5.45;1.23;;;24.80;52.80;;;;;;5114292;28;20467;-59
2020/12/06 10:36:13;;;;;;;5.93;1.85;;;24.70;52.90;;;;;;5114218;28;20056;-59
2020/12/06 10:38:42;;;;;;;4.00;1.40;;;24.70;53.00;;;;;;5113889;28;20015;-59
2020/12/06 10:41:19;;;;;;;4.82;1.20;;;24.60;53.80;;;;;;5113742;28;20472;-59
2020/12/06 10:43:47;;;;;;;4.78;1.20;;;24.60;52.70;;;;;;5095601;28;20053;-59
2020/12/06 10:46:16;;;;;;;6.35;1.88;;;24.50;53.30;;;;;;5113600;28;20024;-59
2020/12/06 10:48:44;;;;;;;4.68;1.45;;;24.40;54.20;;;;;;5113594;28;20030;-59
2020/12/06 10:51:13;;;;;;;3.90;1.30;;;24.40;53.40;;;;;;5113647;28;20016;-58
2020/12/06 10:53:41;;;;;;;6.07;1.20;;;24.40;54.20;;;;;;5113549;28;20026;-59
2020/12/06 10:56:09;;;;;;;7.75;1.60;;;24.30;54.30;;;;;;5120409;27;20403;-59
2020/12/06 10:58:37;;;;;;;7.32;1.65;;;24.20;54.00;;;;;;5134370;27;20480;-58
2020/12/06 11:01:05;;;;;;;4.93;1.40;;;24.20;54.40;;;;;;5134293;27;20360;-59
2020/12/06 11:03:33;;;;;;;6.68;1.42;;;24.10;54.80;;;;;;5134339;27;20026;-59
2020/12/06 11:06:04;;;;;;;4.00;1.30;;;24.00;55.20;;;;;;5134140;27;20065;-59
2020/12/06 11:08:32;;;;;;;4.78;1.48;;;23.90;55.30;;;;;;5133912;27;20019;-59
2020/12/06 11:11:01;;;;;;;3.33;1.27;;;23.90;55.20;;;;;;5134223;27;20415;-59
2020/12/06 11:13:29;;;;;;;6.50;1.30;;;23.80;55.60;;;;;;5134134;27;20481;-58
2020/12/06 11:15:57;;;;;;;5.20;1.58;;;23.80;55.40;;;;;;5134224;27;20031;-59
2020/12/06 11:18:25;;;;;;;6.80;1.50;;;23.80;55.70;;;;;;5133810;27;20390;-59
2020/12/06 11:20:53;;;;;;;6.30;1.40;;;23.70;56.00;;;;;;5097512;27;20147;-58
2020/12/06 11:23:21;;;;;;;6.55;1.52;;;23.60;56.60;;;;;;5134560;27;20132;-59
2020/12/06 11:25:50;;;;;;;4.93;1.15;;;23.60;55.70;;;;;;5134070;27;20020;-59
2020/12/06 11:28:18;;;;;;;4.82;1.30;;;23.50;55.10;;;;;;5133814;27;20434;-59
2020/12/06 11:30:46;;;;;;;5.18;1.20;;;23.50;55.50;;;;;;5134013;27;20476;-59
2020/12/06 11:33:14;;;;;;;6.13;1.55;;;23.50;55.60;;;;;;5114941;27;20031;-58
2020/12/06 11:35:43;;;;;;;3.25;1.00;;;23.50;55.30;;;;;;5115735;27;20376;-59
2020/12/06 11:38:11;;;;;;;8.13;1.38;;;23.40;55.50;;;;;;5133425;27;20027;-59
2020/12/06 11:40:39;;;;;;;6.72;1.50;;;23.40;55.70;;;;;;5133740;27;20030;-59
2020/12/06 11:43:07;;;;;;;5.35;1.35;;;23.40;55.20;;;;;;5133563;27;20118;-59
2020/12/06 11:45:37;;;;;;;5.22;1.30;;;23.40;55.50;;;;;;5098042;27;20046;-59
2020/12/06 11:48:05;;;;;;;6.68;1.20;;;23.30;55.60;;;;;;5090600;28;20032;-58
2020/12/06 11:50:33;;;;;;;7.22;1.40;;;23.30;55.90;;;;;;5090550;28;20591;-58
2020/12/06 11:53:01;;;;;;;5.00;1.48;;;23.20;56.10;;;;;;5090856;28;20036;-59
2020/12/06 11:55:30;;;;;;;6.70;1.17;;;23.20;56.10;;;;;;5090216;28;20028;-59
2020/12/06 11:57:58;;;;;;;3.22;1.20;;;23.20;56.10;;;;;;5070679;28;20045;-59
2020/12/06 12:00:27;;;;;;;9.77;1.88;;;23.10;56.20;;;;;;5070170;28;20036;-59
2020/12/06 12:02:55;;;;;;;5.70;1.40;;;23.10;57.20;;;;;;5070124;28;20036;-59
2020/12/06 12:05:23;;;;;;;6.38;2.13;;;23.10;56.80;;;;;;5070203;28;20031;-58
2020/12/06 12:07:51;;;;;;;8.85;2.03;;;23.00;56.90;;;;;;5070084;28;20492;-59
2020/12/06 12:10:19;;;;;;;6.13;1.15;;;23.00;57.30;;;;;;5070220;28;20048;-58
2020/12/06 12:12:48;;;;;;;5.57;1.20;;;22.90;57.20;;;;;;5070223;28;20043;-58
2020/12/06 12:15:16;;;;;;;4.93;1.48;;;22.90;57.30;;;;;;5070064;28;20044;-59
2020/12/06 12:17:45;;;;;;;5.95;1.38;;;22.90;57.50;;;;;;5070048;28;20033;-60
2020/12/06 12:20:13;;;;;;;5.15;1.27;;;22.80;58.00;;;;;;5070186;28;20473;-59
2020/12/06 12:22:41;;;;;;;4.72;1.65;;;22.80;57.60;;;;;;5070089;28;20029;-58
2020/12/06 12:25:09;;;;;;;8.20;1.70;;;22.80;58.60;;;;;;5070066;28;20036;-58
2020/12/06 12:27:37;;;;;;;4.78;1.50;;;22.70;57.90;;;;;;5069844;28;20491;-58
2020/12/06 12:30:06;;;;;;;6.82;1.20;;;22.70;58.20;;;;;;5053347;28;20055;-59
2020/12/06 12:32:35;;;;;;;3.92;1.27;;;22.60;58.20;;;;;;5021023;28;20116;-59
2020/12/06 12:35:03;;;;;;;5.75;1.58;;;22.60;58.40;;;;;;5088887;28;20032;-58
2020/12/06 12:37:31;;;;;;;7.18;1.17;;;22.50;58.40;;;;;;5116750;28;20020;-58
2020/12/06 12:39:59;;;;;;;5.63;1.73;;;22.50;58.70;;;;;;5117141;28;20027;-59
2020/12/06 12:42:29;;;;;;;8.52;1.83;;;22.40;59.30;;;;;;5116606;28;20096;-59
2020/12/06 12:44:57;;;;;;;4.27;1.13;;;22.40;59.00;;;;;;5115112;28;20027;-59
2020/12/06 12:47:25;;;;;;;6.20;1.60;;;22.40;59.20;;;;;;5116606;28;20107;-59
2020/12/06 12:49:54;;;;;;;4.68;1.30;;;22.40;59.10;;;;;;5116503;28;20024;-59
2020/12/06 12:52:22;;;;;;;3.42;1.33;;;22.40;59.30;;;;;;5116668;28;20078;-59
2020/12/06 12:54:53;;;;;;;10.02;2.20;;;22.40;59.30;;;;;;5116453;28;20020;-59
2020/12/06 12:57:20;;;;;;;;;;;22.30;59.70;;;;;;5116588;28;20058;-59
2020/12/06 12:59:48;;;;;;;6.03;1.77;;;22.30;59.40;;;;;;5116785;28;19937;-58